createdAt,value
2023-05-17T00:02:21.560Z,13.82
2023-05-17T00:04:48.177Z,13.82
2023-05-17T00:07:14.733Z,13.81
2023-05-17T00:09:41.183Z,13.82
2023-05-17T00:12:07.932Z,13.93
2023-05-17T00:14:34.486Z,14.09
2023-05-17T00:17:01.034Z,14.03
2023-05-17T00:19:27.703Z,13.99
2023-05-17T00:21:56.742Z,14.03
2023-05-17T00:24:23.373Z,14.00
2023-05-17T00:26:49.897Z,13.65
2023-05-17T00:29:16.506Z,13.91
2023-05-17T00:31:43.043Z,13.91
2023-05-17T00:34:11.864Z,13.96
2023-05-17T00:36:38.391Z,13.99
2023-05-17T00:39:04.992Z,13.96
2023-05-17T00:41:31.655Z,13.93
2023-05-17T00:44:01.250Z,13.96
2023-05-17T00:46:27.918Z,13.93
2023-05-17T00:48:54.737Z,13.83
2023-05-17T00:51:23.039Z,13.85
2023-05-17T00:53:55.889Z,13.15
2023-05-17T00:56:22.831Z,13.79
2023-05-17T00:58:56.716Z,13.47
2023-05-17T01:01:23.302Z,13.87
2023-05-17T01:03:50.095Z,13.99
2023-05-17T01:06:19.011Z,13.88
2023-05-17T01:08:46.075Z,13.77
2023-05-17T01:11:26.354Z,13.68
2023-05-17T01:14:25.446Z,13.39
2023-05-17T01:16:55.033Z,13.73
2023-05-17T01:19:50.974Z,13.78
2023-05-17T01:22:40.623Z,13.48
2023-05-17T01:25:37.065Z,13.83
2023-05-17T01:28:17.137Z,13.90
2023-05-17T01:30:54.144Z,13.98
2023-05-17T01:33:21.542Z,13.87
2023-05-17T01:35:51.018Z,13.79
2023-05-17T01:38:17.583Z,13.85
2023-05-17T01:40:52.286Z,13.88
2023-05-17T01:43:44.819Z,13.83
2023-05-17T01:46:16.664Z,13.78
2023-05-17T01:48:56.403Z,13.84
2023-05-17T01:51:24.074Z,13.85
2023-05-17T01:53:55.728Z,13.82
2023-05-17T01:56:28.033Z,13.39
2023-05-17T01:58:57.234Z,13.76
2023-05-17T02:01:24.734Z,13.76
2023-05-17T02:03:55.251Z,13.70
2023-05-17T02:06:29.605Z,13.74
2023-05-17T02:09:04.887Z,13.68
2023-05-17T02:11:34.331Z,13.72
2023-05-17T02:14:03.899Z,13.66
2023-05-17T02:16:30.845Z,13.65
2023-05-17T02:18:57.520Z,13.63
2023-05-17T02:21:24.137Z,13.68
2023-05-17T02:23:51.319Z,13.67
2023-05-17T02:26:19.079Z,13.32
2023-05-17T02:28:45.711Z,13.61
2023-05-17T02:31:12.253Z,13.63
2023-05-17T02:33:38.797Z,13.68
2023-05-17T02:36:05.629Z,13.67
2023-05-17T02:38:32.238Z,13.61
2023-05-17T02:40:59.220Z,13.66
2023-05-17T02:43:25.767Z,13.64
2023-05-17T02:45:56.386Z,13.66
2023-05-17T02:48:23.668Z,13.71
2023-05-17T02:50:52.821Z,13.68
2023-05-17T02:53:19.398Z,13.67
2023-05-17T02:55:46.011Z,13.65
2023-05-17T02:58:12.546Z,13.67
2023-05-17T03:00:39.130Z,13.69
2023-05-17T03:03:09.351Z,13.68
2023-05-17T03:05:35.992Z,13.70
2023-05-17T03:08:02.610Z,13.75
2023-05-17T03:10:29.227Z,13.76
2023-05-17T03:13:05.104Z,13.73
2023-05-17T03:15:32.299Z,13.70
2023-05-17T03:17:59.271Z,13.67
2023-05-17T03:20:29.277Z,13.70
2023-05-17T03:23:01.637Z,13.73
2023-05-17T03:25:37.424Z,13.38
2023-05-17T03:28:05.507Z,13.73
2023-05-17T03:30:32.181Z,13.73
2023-05-17T03:32:59.496Z,13.76
2023-05-17T03:35:26.278Z,13.71
2023-05-17T03:37:52.863Z,13.65
2023-05-17T03:40:21.978Z,13.72
2023-05-17T03:42:50.449Z,13.69
2023-05-17T03:45:17.000Z,13.63
2023-05-17T03:47:43.558Z,13.63
2023-05-17T03:50:10.461Z,13.74
2023-05-17T03:52:37.110Z,13.75
2023-05-17T03:55:09.634Z,13.69
2023-05-17T03:57:36.200Z,13.76
2023-05-17T04:00:09.188Z,13.75
2023-05-17T04:02:35.853Z,13.71
2023-05-17T04:05:02.994Z,13.78
2023-05-17T04:07:29.618Z,13.78
2023-05-17T04:09:59.350Z,13.77
2023-05-17T04:12:28.770Z,13.74
2023-05-17T04:14:56.171Z,13.50
2023-05-17T04:17:22.702Z,13.78
2023-05-17T04:19:49.382Z,13.76
2023-05-17T04:22:15.984Z,13.77
2023-05-17T04:24:42.747Z,13.75
2023-05-17T04:27:09.936Z,13.68
2023-05-17T04:29:36.547Z,13.69
2023-05-17T04:32:03.277Z,13.68
2023-05-17T04:34:33.428Z,13.40
2023-05-17T04:37:00.095Z,13.66
2023-05-17T04:39:27.816Z,13.63
2023-05-17T04:41:55.480Z,13.62
2023-05-17T04:44:22.134Z,13.61
2023-05-17T04:46:48.805Z,13.62
2023-05-17T04:49:15.514Z,13.60
2023-05-17T04:51:42.125Z,13.62
2023-05-17T04:54:08.852Z,13.63
2023-05-17T04:56:40.128Z,13.63
2023-05-17T04:59:06.686Z,13.58
2023-05-17T05:01:36.596Z,13.33
2023-05-17T05:04:07.281Z,13.58
2023-05-17T05:06:36.731Z,13.62
2023-05-17T05:09:04.381Z,13.60
2023-05-17T05:11:33.754Z,13.55
2023-05-17T05:14:00.313Z,13.56
2023-05-17T05:16:27.053Z,13.59
2023-05-17T05:18:53.952Z,13.61
2023-05-17T05:21:21.520Z,13.60
2023-05-17T05:23:48.017Z,13.68
2023-05-17T05:26:14.612Z,13.64
2023-05-17T05:28:41.589Z,13.65
2023-05-17T05:31:08.110Z,13.62
2023-05-17T05:33:41.611Z,13.34
2023-05-17T05:36:08.582Z,13.65
2023-05-17T05:38:43.431Z,13.67
2023-05-17T05:41:17.583Z,13.72
2023-05-17T05:43:55.173Z,13.36
2023-05-17T05:46:35.417Z,13.64
2023-05-17T05:49:08.290Z,13.33
2023-05-17T05:51:43.762Z,13.30
2023-05-17T05:54:10.766Z,13.58
2023-05-17T05:56:37.308Z,13.61
2023-05-17T05:59:09.331Z,13.63
2023-05-17T06:01:36.012Z,13.76
2023-05-17T06:04:02.855Z,13.89
2023-05-17T06:06:32.721Z,13.77
2023-05-17T06:09:05.713Z,13.70
2023-05-17T06:11:32.489Z,13.68
2023-05-17T06:14:01.002Z,13.60
2023-05-17T06:16:27.739Z,13.65
2023-05-17T06:18:54.472Z,13.65
2023-05-17T06:21:22.804Z,13.61
2023-05-17T06:23:49.580Z,13.65
2023-05-17T06:26:16.297Z,13.67
2023-05-17T06:28:42.830Z,13.68
2023-05-17T06:31:09.483Z,13.67
2023-05-17T06:33:38.970Z,13.69
2023-05-17T06:36:05.773Z,13.66
2023-05-17T06:38:32.312Z,13.68
2023-05-17T06:41:01.049Z,13.74
2023-05-17T06:43:27.595Z,13.72
2023-05-17T06:45:54.289Z,13.78
2023-05-17T06:48:21.485Z,13.37
2023-05-17T06:50:48.192Z,13.75
2023-05-17T06:53:14.806Z,13.73
2023-05-17T06:55:45.602Z,13.21
2023-05-17T06:58:12.459Z,13.72
2023-05-17T07:00:39.032Z,13.77
2023-05-17T07:03:05.969Z,13.82
2023-05-17T07:05:33.121Z,13.89
2023-05-17T07:08:00.106Z,13.92
2023-05-17T07:10:26.768Z,14.04
2023-05-17T07:12:53.359Z,14.05
2023-05-17T07:15:19.974Z,14.09
2023-05-17T07:17:47.656Z,14.09
2023-05-17T07:20:17.623Z,14.09
2023-05-17T07:22:44.778Z,14.08
2023-05-17T07:25:18.239Z,13.79
2023-05-17T07:27:56.684Z,14.14
2023-05-17T07:33:18.608Z,14.16
2023-05-17T07:35:45.308Z,14.26
2023-05-17T07:38:13.998Z,14.19
2023-05-17T07:40:41.477Z,14.18
2023-05-17T07:43:12.050Z,14.20
2023-05-17T07:45:43.278Z,13.85
2023-05-17T07:48:10.216Z,14.20
2023-05-17T07:50:36.955Z,14.16
2023-05-17T07:53:09.737Z,13.92
2023-05-17T07:55:51.623Z,14.20
2023-05-17T07:58:18.199Z,14.24
2023-05-17T08:00:44.739Z,14.26
2023-05-17T08:03:11.461Z,14.32
2023-05-17T08:05:38.123Z,13.93
2023-05-17T08:08:04.964Z,14.21
2023-05-17T08:10:31.810Z,14.20
2023-05-17T08:12:59.690Z,14.24
2023-05-17T08:15:27.885Z,14.31
2023-05-17T08:18:02.925Z,13.96
2023-05-17T08:20:31.511Z,14.31
2023-05-17T08:22:58.551Z,14.32
2023-05-17T08:25:25.218Z,14.30
2023-05-17T08:27:52.849Z,14.39
2023-05-17T08:30:28.584Z,14.39
2023-05-17T08:32:56.848Z,14.39
2023-05-17T08:35:29.035Z,14.44
2023-05-17T08:38:02.574Z,14.38
2023-05-17T08:40:29.960Z,14.49
2023-05-17T08:42:59.266Z,14.25
2023-05-17T08:45:27.001Z,14.55
2023-05-17T08:47:59.072Z,14.63
2023-05-17T08:50:27.113Z,14.74
2023-05-17T08:52:54.266Z,14.73
2023-05-17T08:55:20.860Z,14.67
2023-05-17T08:57:53.382Z,14.71
2023-05-17T09:00:26.214Z,14.66
2023-05-17T09:02:53.714Z,14.65
2023-05-17T09:05:23.445Z,14.68
2023-05-17T09:07:52.878Z,14.80
2023-05-17T09:10:27.838Z,14.44
2023-05-17T09:12:56.727Z,14.73
2023-05-17T09:15:24.287Z,14.73
2023-05-17T09:17:52.195Z,14.79
2023-05-17T09:20:24.519Z,14.80
2023-05-17T09:22:55.933Z,14.80
2023-05-17T09:25:24.223Z,14.85
2023-05-17T09:27:53.636Z,14.81
2023-05-17T09:30:26.749Z,14.78
2023-05-17T09:32:55.189Z,14.84
2023-05-17T09:35:30.165Z,14.79
2023-05-17T09:38:26.028Z,14.80
2023-05-17T09:40:52.574Z,14.87
2023-05-17T09:43:24.073Z,14.86
2023-05-17T09:46:03.488Z,14.85
2023-05-17T09:48:33.697Z,14.85
2023-05-17T09:51:03.815Z,14.93
2023-05-17T09:53:31.764Z,14.90
2023-05-17T09:56:00.001Z,14.94
2023-05-17T09:58:27.602Z,14.95
2023-05-17T10:00:55.528Z,14.98
2023-05-17T10:03:22.729Z,15.01
2023-05-17T10:05:53.960Z,14.75
2023-05-17T10:08:23.360Z,14.97
2023-05-17T10:10:51.403Z,14.96
2023-05-17T10:13:25.044Z,14.99
2023-05-17T10:15:52.266Z,14.93
2023-05-17T10:18:26.321Z,14.94
2023-05-17T10:20:54.459Z,14.92
2023-05-17T10:23:22.023Z,14.94
2023-05-17T10:25:51.884Z,14.85
2023-05-17T10:28:19.926Z,14.91
2023-05-17T10:30:47.935Z,14.90
2023-05-17T10:33:18.560Z,14.84
2023-05-17T10:35:46.628Z,14.85
2023-05-17T10:38:14.862Z,14.89
2023-05-17T10:40:43.018Z,14.95
2023-05-17T10:43:10.904Z,14.98
2023-05-17T10:45:42.564Z,14.98
2023-05-17T10:48:10.449Z,14.99
2023-05-17T10:50:54.087Z,15.06
2023-05-17T10:53:27.869Z,15.08
2023-05-17T10:55:58.145Z,15.17
2023-05-17T10:58:32.854Z,15.21
2023-05-17T11:01:04.386Z,14.96
2023-05-17T11:03:31.027Z,15.21
2023-05-17T11:06:24.751Z,15.18
2023-05-17T11:09:12.648Z,15.17
2023-05-17T11:11:59.165Z,15.20
2023-05-17T11:14:25.810Z,15.23
2023-05-17T11:17:00.205Z,15.29
2023-05-17T11:19:27.583Z,15.28
2023-05-17T11:21:54.260Z,15.28
2023-05-17T11:24:26.980Z,15.33
2023-05-17T11:26:54.994Z,15.34
2023-05-17T11:29:22.110Z,15.35
2023-05-17T11:31:52.295Z,15.37
2023-05-17T11:34:20.917Z,15.43
2023-05-17T11:37:00.965Z,15.47
2023-05-17T11:39:29.250Z,15.47
2023-05-17T11:41:56.618Z,15.52
2023-05-17T11:44:39.000Z,15.54
2023-05-17T11:47:07.169Z,15.64
2023-05-17T11:49:36.743Z,15.68
2023-05-17T11:52:04.556Z,15.71
2023-05-17T11:54:31.342Z,15.73
2023-05-17T11:57:00.164Z,15.77
2023-05-17T11:59:26.768Z,15.75
2023-05-17T12:01:53.435Z,15.77
2023-05-17T12:04:25.140Z,15.76
2023-05-17T12:06:54.727Z,15.26
2023-05-17T12:09:22.707Z,15.79
2023-05-17T12:11:49.424Z,15.84
2023-05-17T12:14:20.448Z,15.60
2023-05-17T12:17:03.763Z,15.65
2023-05-17T12:19:37.102Z,15.92
2023-05-17T12:22:23.812Z,15.94
2023-05-17T12:24:52.017Z,15.94
2023-05-17T12:27:28.596Z,15.88
2023-05-17T12:30:04.277Z,15.59
2023-05-17T12:32:34.469Z,15.94
2023-05-17T12:35:01.271Z,15.94
2023-05-17T12:37:31.244Z,15.92
2023-05-17T12:40:01.905Z,15.94
2023-05-17T12:42:32.306Z,15.97
2023-05-17T12:45:00.561Z,15.93
2023-05-17T12:47:33.772Z,15.94
2023-05-17T12:50:00.359Z,15.94
2023-05-17T12:52:33.224Z,15.91
2023-05-17T12:54:59.951Z,15.88
2023-05-17T12:57:26.488Z,15.80
2023-05-17T12:59:53.382Z,15.75
2023-05-17T13:02:20.470Z,15.68
2023-05-17T13:04:58.727Z,15.76
2023-05-17T13:07:27.216Z,15.70
2023-05-17T13:09:54.999Z,15.65
2023-05-17T13:12:22.958Z,15.62
2023-05-17T13:14:55.168Z,15.70
2023-05-17T13:17:26.145Z,15.72
2023-05-17T13:19:53.534Z,15.70
2023-05-17T13:22:22.017Z,15.44
2023-05-17T13:24:48.694Z,15.79
2023-05-17T13:27:17.322Z,15.75
2023-05-17T13:29:50.798Z,15.79
2023-05-17T13:32:17.491Z,15.81
2023-05-17T13:34:44.115Z,15.81
2023-05-17T13:37:19.359Z,15.84
2023-05-17T13:39:51.208Z,15.88
2023-05-17T13:42:18.104Z,15.96
2023-05-17T13:44:50.056Z,15.67
2023-05-17T13:47:21.917Z,15.97
2023-05-17T13:49:54.346Z,16.01
2023-05-17T13:52:25.576Z,15.99
2023-05-17T13:54:52.318Z,16.03
2023-05-17T13:57:25.049Z,16.12
2023-05-17T13:59:51.590Z,16.18
2023-05-17T14:02:22.245Z,16.24
2023-05-17T14:04:50.845Z,16.26
2023-05-17T14:07:20.451Z,16.27
2023-05-17T14:09:47.096Z,16.33
2023-05-17T14:12:13.774Z,16.42
2023-05-17T14:14:44.340Z,16.49
2023-05-17T14:17:17.905Z,16.26
2023-05-17T14:19:45.133Z,16.55
2023-05-17T14:22:11.730Z,16.63
2023-05-17T14:24:48.962Z,16.63
2023-05-17T14:27:19.099Z,16.78
2023-05-17T14:29:47.064Z,16.79
2023-05-17T14:32:14.568Z,16.83
2023-05-17T14:34:41.241Z,16.87
2023-05-17T14:37:07.825Z,16.82
2023-05-17T14:39:37.550Z,16.98
2023-05-17T14:42:04.171Z,16.94
2023-05-17T14:44:31.525Z,16.97
2023-05-17T14:46:59.801Z,16.92
2023-05-17T14:49:26.506Z,16.90
2023-05-17T14:51:54.373Z,16.90
2023-05-17T14:54:23.546Z,16.93
2023-05-17T14:56:53.498Z,16.95
2023-05-17T14:59:22.598Z,16.99
2023-05-17T15:01:56.401Z,16.95
2023-05-17T15:04:23.035Z,16.99
2023-05-17T15:06:49.819Z,17.05
2023-05-17T15:09:19.889Z,17.07
2023-05-17T15:11:46.428Z,17.06
2023-05-17T15:14:13.148Z,17.07
2023-05-17T15:16:40.444Z,17.04
2023-05-17T15:19:08.235Z,17.01
2023-05-17T15:21:34.838Z,16.98
2023-05-17T15:24:05.459Z,16.97
2023-05-17T15:26:32.034Z,16.97
2023-05-17T15:28:58.701Z,17.04
2023-05-17T15:31:25.188Z,17.07
2023-05-17T15:33:52.350Z,17.12
2023-05-17T15:36:19.078Z,17.15
2023-05-17T15:38:45.968Z,17.15
2023-05-17T15:41:17.019Z,17.20
2023-05-17T15:43:44.057Z,17.22
2023-05-17T15:46:15.761Z,17.30
2023-05-17T15:48:50.631Z,17.33
2023-05-17T15:51:21.066Z,17.37
2023-05-17T15:53:51.502Z,17.33
2023-05-17T15:56:23.423Z,17.28
2023-05-17T15:58:50.235Z,17.32
2023-05-17T16:01:17.080Z,17.25
2023-05-17T16:03:45.523Z,17.22
2023-05-17T16:06:15.071Z,17.20
2023-05-17T16:08:45.977Z,17.12
2023-05-17T16:11:12.810Z,16.63
2023-05-17T16:13:44.934Z,17.00
2023-05-17T16:16:13.455Z,16.98
2023-05-17T16:18:40.498Z,16.92
2023-05-17T16:21:11.617Z,16.92
2023-05-17T16:23:38.204Z,16.84
2023-05-17T16:26:04.874Z,16.86
2023-05-17T16:28:32.443Z,16.85
2023-05-17T16:30:59.421Z,16.78
2023-05-17T16:33:26.655Z,16.86
2023-05-17T16:35:55.382Z,16.50
2023-05-17T16:38:21.971Z,16.72
2023-05-17T16:40:54.118Z,16.68
2023-05-17T16:43:21.885Z,16.76
2023-05-17T16:45:50.005Z,16.65
2023-05-17T16:48:17.741Z,16.64
2023-05-17T16:50:44.356Z,16.63
2023-05-17T16:53:11.107Z,16.54
2023-05-17T16:55:37.744Z,16.54
2023-05-17T16:58:05.133Z,16.48
2023-05-17T17:03:16.915Z,16.55
2023-05-17T17:05:43.665Z,16.52
2023-05-17T17:08:10.192Z,16.47
2023-05-17T17:10:36.860Z,16.45
2023-05-17T17:13:08.213Z,16.49
2023-05-17T17:15:34.919Z,16.44
2023-05-17T17:18:05.216Z,16.39
2023-05-17T17:20:31.910Z,16.41
2023-05-17T17:23:04.545Z,16.36
2023-05-17T17:25:31.301Z,16.37
2023-05-17T17:27:57.922Z,16.37
2023-05-17T17:30:27.486Z,16.33
2023-05-17T17:32:54.645Z,16.32
2023-05-17T17:35:21.672Z,16.40
2023-05-17T17:37:48.619Z,16.39
2023-05-17T17:40:15.207Z,16.40
2023-05-17T17:42:41.981Z,16.32
2023-05-17T17:45:08.953Z,16.27
2023-05-17T17:47:35.819Z,16.28
2023-05-17T17:50:02.910Z,16.28
2023-05-17T17:52:29.953Z,16.26
2023-05-17T17:54:56.847Z,16.23
2023-05-17T17:57:24.163Z,16.14
2023-05-17T17:59:51.301Z,16.26
2023-05-17T18:02:18.685Z,16.26
2023-05-17T18:04:47.855Z,16.26
2023-05-17T18:07:16.981Z,16.25
2023-05-17T18:09:56.186Z,16.00
2023-05-17T18:12:23.548Z,16.23
2023-05-17T18:14:52.790Z,16.25
2023-05-17T18:17:28.665Z,16.17
2023-05-17T18:19:55.262Z,16.14
2023-05-17T18:22:22.288Z,15.80
2023-05-17T18:24:51.858Z,15.91
2023-05-17T18:27:22.762Z,16.34
2023-05-17T18:29:52.415Z,16.30
2023-05-17T18:32:28.345Z,16.26
2023-05-17T18:34:58.442Z,16.00
2023-05-17T18:37:34.459Z,16.23
2023-05-17T18:40:16.566Z,16.10
2023-05-17T18:43:03.931Z,16.03
2023-05-17T18:45:36.305Z,16.00
2023-05-17T18:48:03.545Z,15.98
2023-05-17T18:50:30.983Z,15.99
2023-05-17T18:53:15.490Z,15.98
2023-05-17T18:55:44.540Z,15.97
2023-05-17T18:58:11.244Z,15.96
2023-05-17T19:00:37.869Z,15.70
2023-05-17T19:03:04.629Z,15.99
2023-05-17T19:05:31.282Z,15.99
2023-05-17T19:08:00.752Z,16.02
2023-05-17T19:10:31.121Z,15.96
2023-05-17T19:13:02.527Z,15.91
2023-05-17T19:18:10.227Z,15.93
2023-05-17T19:20:51.432Z,15.99
2023-05-17T19:23:32.149Z,15.95
2023-05-17T19:26:29.809Z,15.98
2023-05-17T19:29:28.790Z,15.66
2023-05-17T19:32:15.094Z,15.57
2023-05-17T19:34:46.068Z,15.93
2023-05-17T19:37:13.166Z,15.90
2023-05-17T19:39:41.233Z,15.87
2023-05-17T19:42:07.924Z,15.84
2023-05-17T19:44:45.000Z,15.42
2023-05-17T19:47:12.029Z,15.86
2023-05-17T19:49:45.016Z,15.86
2023-05-17T19:52:16.299Z,15.81
2023-05-17T19:54:44.883Z,15.78
2023-05-17T19:57:11.614Z,15.75
2023-05-17T19:59:41.294Z,15.81
2023-05-17T20:02:08.952Z,15.75
2023-05-17T20:04:37.112Z,15.75
2023-05-17T20:07:08.896Z,15.74
2023-05-17T20:09:36.511Z,15.77
2023-05-17T20:12:04.325Z,15.81
2023-05-17T20:14:31.784Z,15.84
2023-05-17T20:16:58.766Z,15.78
2023-05-17T20:19:26.592Z,15.74
2023-05-17T20:21:57.382Z,15.73
2023-05-17T20:24:29.247Z,15.72
2023-05-17T20:27:01.681Z,15.70
2023-05-17T20:29:29.939Z,15.67
2023-05-17T20:31:59.002Z,15.66
2023-05-17T20:34:38.163Z,15.66
2023-05-17T20:37:11.541Z,15.62
2023-05-17T20:39:52.722Z,15.63
2023-05-17T20:42:22.546Z,15.65
2023-05-17T20:44:51.969Z,15.69
2023-05-17T20:47:18.583Z,15.66
2023-05-17T20:49:45.330Z,15.70
2023-05-17T20:52:17.895Z,15.69
2023-05-17T20:54:46.930Z,15.70
2023-05-17T20:57:23.439Z,15.39
2023-05-17T20:59:57.994Z,15.42
2023-05-17T21:02:27.758Z,15.65
2023-05-17T21:05:00.023Z,15.62
2023-05-17T21:07:31.377Z,15.57
2023-05-17T21:10:01.879Z,15.52
2023-05-17T21:12:37.830Z,15.33
2023-05-17T21:15:16.690Z,15.58
2023-05-17T21:18:01.191Z,15.55
2023-05-17T21:20:30.556Z,15.53
2023-05-17T21:23:01.881Z,15.55
2023-05-17T21:25:42.981Z,15.64
2023-05-17T21:28:10.244Z,15.57
2023-05-17T21:30:36.869Z,15.53
2023-05-17T21:33:05.753Z,15.52
2023-05-17T21:35:32.926Z,15.51
2023-05-17T21:38:02.108Z,15.51
2023-05-17T21:40:28.899Z,15.67
2023-05-17T21:42:58.669Z,15.32
2023-05-17T21:45:28.942Z,15.30
2023-05-17T21:47:56.418Z,15.62
2023-05-17T21:50:31.564Z,15.34
2023-05-17T21:52:58.634Z,15.70
2023-05-17T21:55:26.198Z,15.62
2023-05-17T21:58:05.642Z,15.60
2023-05-17T22:00:32.706Z,15.62
2023-05-17T22:03:04.007Z,15.56
2023-05-17T22:05:33.102Z,15.25
2023-05-17T22:08:01.722Z,15.48
2023-05-17T22:10:28.712Z,15.56
2023-05-17T22:12:55.485Z,15.51
2023-05-17T22:15:28.238Z,15.48
2023-05-17T22:17:57.936Z,15.45
2023-05-17T22:20:26.865Z,15.44
2023-05-17T22:22:53.552Z,15.41
2023-05-17T22:25:20.118Z,15.39
2023-05-17T22:27:46.813Z,15.39
2023-05-17T22:30:13.892Z,15.41
2023-05-17T22:32:46.861Z,15.40
2023-05-17T22:35:13.692Z,15.41
2023-05-17T22:37:42.902Z,15.42
2023-05-17T22:40:12.644Z,15.38
2023-05-17T22:42:45.551Z,15.37
2023-05-17T22:45:17.120Z,15.32
2023-05-17T22:47:53.411Z,15.29
2023-05-17T22:50:20.142Z,15.26
2023-05-17T22:55:48.972Z,15.21
2023-05-17T22:58:23.431Z,15.13
2023-05-17T23:00:58.167Z,15.09
2023-05-17T23:03:25.231Z,15.08
2023-05-17T23:06:04.986Z,15.01
2023-05-17T23:08:47.960Z,14.94
2023-05-17T23:11:18.177Z,14.96
2023-05-17T23:13:49.102Z,14.48
2023-05-17T23:16:15.681Z,14.87
2023-05-17T23:18:46.496Z,14.85
2023-05-17T23:21:13.179Z,14.82
2023-05-17T23:23:42.863Z,14.81
2023-05-17T23:26:10.351Z,14.78
2023-05-17T23:28:37.819Z,14.77
2023-05-17T23:31:05.987Z,14.74
2023-05-17T23:33:34.025Z,14.78
2023-05-17T23:36:01.075Z,14.85
2023-05-17T23:38:28.488Z,14.89
2023-05-17T23:40:55.267Z,14.85
2023-05-17T23:43:21.901Z,14.84
2023-05-17T23:45:48.677Z,14.81
2023-05-17T23:48:17.406Z,14.79
2023-05-17T23:50:43.955Z,14.77
2023-05-17T23:53:10.566Z,14.75
2023-05-17T23:55:39.943Z,14.46
2023-05-17T23:58:25.190Z,14.78
